createdAt,value
2018-08-30T06:31:20.599Z,22.7
2018-08-30T06:31:30.932Z,22.6
2018-08-30T06:32:21.064Z,22.6
2018-08-30T06:33:11.311Z,22.6
2018-08-30T06:34:00.900Z,22.6
2018-08-30T06:34:53.020Z,22.6
2018-08-30T06:35:41.573Z,22.6
2018-08-30T06:36:31.422Z,22.6
2018-08-30T06:37:21.109Z,22.6
2018-08-30T06:38:11.468Z,22.6
2018-08-30T06:39:01.751Z,22.6
2018-08-30T06:39:50.981Z,22.6
2018-08-30T06:40:41.956Z,22.6
2018-08-30T06:41:32.691Z,22.6
2018-08-30T06:42:21.756Z,22.6
2018-08-30T06:43:12.079Z,22.6
2018-08-30T06:44:01.751Z,22.6
2018-08-30T06:44:51.928Z,22.6
2018-08-30T06:45:41.726Z,22.7
2018-08-30T06:46:32.671Z,22.6
2018-08-30T06:47:22.714Z,22.7
2018-08-30T06:48:12.746Z,22.6
2018-08-30T06:49:04.430Z,22.7
2018-08-30T06:49:52.388Z,22.6
2018-08-30T06:50:42.972Z,22.7
2018-08-30T06:51:33.004Z,22.7
2018-08-30T06:52:23.128Z,22.7
2018-08-30T06:53:12.874Z,22.7
2018-08-30T06:54:02.326Z,22.7
2018-08-30T06:54:52.707Z,22.8
2018-08-30T06:55:43.055Z,22.7
2018-08-30T06:56:34.170Z,22.8
2018-08-30T06:57:22.940Z,22.8
2018-08-30T06:58:13.240Z,22.7
2018-08-30T06:59:03.036Z,22.8
2018-08-30T06:59:52.887Z,22.8
2018-08-30T07:00:42.596Z,22.8
2018-08-30T07:01:33.896Z,22.8
2018-08-30T07:02:23.541Z,22.8
2018-08-30T07:03:13.131Z,22.8
2018-08-30T07:04:04.096Z,22.8
2018-08-30T07:04:53.606Z,22.8
2018-08-30T07:05:43.469Z,22.8
2018-08-30T07:06:34.187Z,22.8
2018-08-30T07:07:24.225Z,22.8
2018-08-30T07:08:14.741Z,22.8
2018-08-30T07:09:02.915Z,22.8
2018-08-30T07:09:53.549Z,22.8
2018-08-30T07:10:43.914Z,22.8
2018-08-30T07:11:34.573Z,22.9
2018-08-30T07:12:24.276Z,22.8
2018-08-30T07:13:14.397Z,22.9
2018-08-30T07:14:04.557Z,22.9
2018-08-30T07:14:55.038Z,22.9
2018-08-30T07:15:44.624Z,22.9
2018-08-30T07:16:34.664Z,22.9
2018-08-30T07:17:25.197Z,22.9
2018-08-30T07:18:13.695Z,22.9
2018-08-30T07:19:04.527Z,22.9
2018-08-30T07:19:54.921Z,22.9
2018-08-30T07:20:44.682Z,22.9
2018-08-30T07:21:35.059Z,22.9
2018-08-30T07:22:25.124Z,22.9
2018-08-30T07:23:15.722Z,22.9
2018-08-30T07:24:05.772Z,22.9
2018-08-30T07:24:55.004Z,22.9
2018-08-30T07:25:45.393Z,22.9
2018-08-30T07:26:35.159Z,22.9
2018-08-30T07:27:26.024Z,22.9
2018-08-30T07:28:15.936Z,22.9
2018-08-30T07:29:05.450Z,22.9
2018-08-30T07:29:55.464Z,22.9
2018-08-30T07:30:46.038Z,22.9
2018-08-30T07:31:35.695Z,22.9
2018-08-30T07:32:24.137Z,22.9
2018-08-30T07:33:14.957Z,23
2018-08-30T07:34:05.332Z,23
2018-08-30T07:34:57.873Z,23
2018-08-30T07:35:46.398Z,23
2018-08-30T07:36:35.488Z,23
2018-08-30T07:37:26.743Z,23
2018-08-30T07:38:16.476Z,23
2018-08-30T07:39:05.655Z,23
2018-08-30T07:39:56.155Z,23
2018-08-30T07:40:46.230Z,23.1
2018-08-30T07:41:36.871Z,23
2018-08-30T07:42:25.783Z,23.1
2018-08-30T07:43:16.690Z,23.1
2018-08-30T07:44:06.425Z,23.1
2018-08-30T07:44:56.513Z,23.1
2018-08-30T07:45:47.243Z,23.1
2018-08-30T07:46:36.121Z,23.1
2018-08-30T07:47:28.161Z,23.1
2018-08-30T07:48:17.381Z,23.1
2018-08-30T07:49:07.160Z,23.1
2018-08-30T07:49:57.813Z,23.1
2018-08-30T07:50:47.227Z,23.1
2018-08-30T07:51:37.663Z,23.1
2018-08-30T07:52:27.422Z,23.1
2018-08-30T07:53:17.193Z,23.1
2018-08-30T07:54:07.846Z,23.1
2018-08-30T07:54:57.277Z,23.1
2018-08-30T07:55:47.392Z,23.1
2018-08-30T07:56:37.482Z,23.1
2018-08-30T07:57:28.525Z,23.1
2018-08-30T07:58:17.865Z,23.1
2018-08-30T07:59:07.637Z,23.1
2018-08-30T07:59:59.089Z,23.1
2018-08-30T08:00:47.509Z,23.2
2018-08-30T08:01:37.852Z,23.1
2018-08-30T08:02:27.612Z,23.2
2018-08-30T08:03:18.494Z,23.2
2018-08-30T08:04:09.161Z,23.2
2018-08-30T08:04:57.901Z,23.2
2018-08-30T08:05:47.944Z,23.2
2018-08-30T08:06:37.955Z,23.2
2018-08-30T08:07:28.686Z,23.2
2018-08-30T08:08:18.671Z,23.2
2018-08-30T08:09:08.174Z,23.2
2018-08-30T08:09:58.851Z,23.2
2018-08-30T08:10:47.772Z,23.2
2018-08-30T08:11:38.731Z,23.3
2018-08-30T08:12:29.313Z,23.2
2018-08-30T08:13:19.026Z,23.2
2018-08-30T08:14:08.521Z,23.2
2018-08-30T08:14:58.643Z,23.3
2018-08-30T08:15:48.940Z,23.3
2018-08-30T08:16:39.288Z,23.3
2018-08-30T08:17:28.475Z,23.3
2018-08-30T08:18:19.163Z,23.3
2018-08-30T08:19:11.006Z,23.3
2018-08-30T08:19:59.276Z,23.3
2018-08-30T08:20:49.897Z,23.3
2018-08-30T08:21:39.675Z,23.3
2018-08-30T08:22:30.046Z,23.3
2018-08-30T08:23:20.085Z,23.3
2018-08-30T08:24:09.903Z,23.3
2018-08-30T08:25:00.370Z,23.3
2018-08-30T08:25:50.875Z,23.3
2018-08-30T08:26:39.498Z,23.3
2018-08-30T08:27:30.133Z,23.3
2018-08-30T08:28:20.494Z,23.3
2018-08-30T08:29:10.290Z,23.3
2018-08-30T08:30:00.642Z,23.3
2018-08-30T08:30:49.815Z,23.3
2018-08-30T08:31:40.499Z,23.3
2018-08-30T08:32:29.908Z,23.3
2018-08-30T08:33:20.835Z,23.3
2018-08-30T08:34:10.362Z,23.3
2018-08-30T08:35:00.957Z,23.3
2018-08-30T08:35:50.520Z,23.3
2018-08-30T08:36:41.384Z,23.3
2018-08-30T08:37:30.402Z,23.3
2018-08-30T08:38:19.899Z,23.3
2018-08-30T08:39:10.559Z,23.3
2018-08-30T08:40:00.597Z,23.4
2018-08-30T08:40:50.361Z,23.3
2018-08-30T08:41:41.542Z,23.3
2018-08-30T08:42:31.560Z,23.3
2018-08-30T08:43:21.322Z,23.4
2018-08-30T08:44:11.490Z,23.4
2018-08-30T08:45:00.598Z,23.4
2018-08-30T08:45:51.217Z,23.4
2018-08-30T08:46:41.676Z,23.4
2018-08-30T08:47:31.988Z,23.4
2018-08-30T08:48:21.729Z,23.4
2018-08-30T08:49:11.501Z,23.4
2018-08-30T08:50:02.192Z,23.4
2018-08-30T08:50:51.880Z,23.4
2018-08-30T08:51:42.031Z,23.4
2018-08-30T08:52:32.083Z,23.4
2018-08-30T08:53:22.133Z,23.4
2018-08-30T08:54:12.254Z,23.4
2018-08-30T08:55:02.557Z,23.4
2018-08-30T08:55:52.094Z,23.4
2018-08-30T08:56:41.564Z,23.4
2018-08-30T08:57:31.456Z,23.4
2018-08-30T09:14:46.087Z,23.4
2018-08-30T09:15:34.458Z,23.5
2018-08-30T09:16:24.293Z,23.5
2018-08-30T09:17:15.311Z,23.5
2018-08-30T09:18:04.932Z,23.5
2018-08-30T09:18:54.633Z,23.4
2018-08-30T09:19:45.203Z,23.5
2018-08-30T09:20:34.815Z,23.5
2018-08-30T09:21:25.443Z,23.5
2018-08-30T09:22:14.910Z,23.5
2018-08-30T09:23:04.824Z,23.5
2018-08-30T09:23:55.366Z,23.5
2018-08-30T09:24:45.363Z,23.5
2018-08-30T09:25:36.021Z,23.5
2018-08-30T09:26:26.095Z,23.5
2018-08-30T09:27:17.996Z,23.5
2018-08-30T09:28:04.308Z,23.5
2018-08-30T09:28:55.395Z,23.5
2018-08-30T09:29:46.275Z,23.5
2018-08-30T09:30:36.232Z,23.6
2018-08-30T09:31:25.398Z,23.5
2018-08-30T09:32:16.529Z,23.5
2018-08-30T09:33:06.256Z,23.5
2018-08-30T09:33:56.368Z,23.6
2018-08-30T09:34:45.172Z,23.6
2018-08-30T09:35:36.743Z,23.5
2018-08-30T09:36:25.724Z,23.6
2018-08-30T09:37:16.861Z,23.5
2018-08-30T09:38:05.659Z,23.6
2018-08-30T09:38:56.872Z,23.6
2018-08-30T09:39:47.038Z,23.6
2018-08-30T09:40:36.609Z,23.6
2018-08-30T09:41:26.660Z,23.6
2018-08-30T09:42:17.051Z,23.6
2018-08-30T09:43:06.762Z,23.6
2018-08-30T09:43:58.277Z,23.6
2018-08-30T09:44:46.656Z,23.6
2018-08-30T09:45:36.664Z,23.6
2018-08-30T09:46:26.753Z,23.6
2018-08-30T09:47:16.829Z,23.6
2018-08-30T09:48:07.187Z,23.6
2018-08-30T09:48:57.273Z,23.6
2018-08-30T09:49:48.371Z,23.6
2018-08-30T09:50:37.641Z,23.6
2018-08-30T09:51:27.136Z,23.6
2018-08-30T09:52:17.221Z,23.6
2018-08-30T09:53:07.546Z,23.6
2018-08-30T09:53:57.330Z,23.6
2018-08-30T09:54:48.581Z,23.6
2018-08-30T09:55:38.520Z,23.6
2018-08-30T09:56:28.783Z,23.6
2018-08-30T09:57:20.349Z,23.6
2018-08-30T09:58:08.007Z,23.6
2018-08-30T09:58:57.997Z,23.6
2018-08-30T09:59:48.663Z,23.6
2018-08-30T10:00:38.459Z,23.6
2018-08-30T10:01:28.707Z,23.6
2018-08-30T10:02:18.340Z,23.6
2018-08-30T10:03:07.852Z,23.6
2018-08-30T10:03:59.717Z,23.6
2018-08-30T10:04:49.935Z,23.6
2018-08-30T10:05:38.780Z,23.6
2018-08-30T10:06:28.582Z,23.6
2018-08-30T10:07:18.652Z,23.6
2018-08-30T10:08:08.760Z,23.6
2018-08-30T10:08:58.062Z,23.6
2018-08-30T10:09:49.382Z,23.6
2018-08-30T10:10:39.034Z,23.6
2018-08-30T10:11:29.317Z,23.6
2018-08-30T10:12:18.526Z,23.6
2018-08-30T10:13:08.581Z,23.6
2018-08-30T10:13:59.186Z,23.6
2018-08-30T10:14:48.761Z,23.6
2018-08-30T10:15:39.158Z,23.6
2018-08-30T10:16:28.661Z,23.6
2018-08-30T10:17:19.518Z,23.6
2018-08-30T10:18:10.051Z,23.6
2018-08-30T10:18:59.402Z,23.6
2018-08-30T10:19:49.409Z,23.6
2018-08-30T10:20:39.447Z,23.6
2018-08-30T10:21:30.836Z,23.6
2018-08-30T10:22:19.206Z,23.7
2018-08-30T10:23:09.431Z,23.6
2018-08-30T10:23:59.728Z,23.6
2018-08-30T10:24:50.321Z,23.7
2018-08-30T10:25:40.708Z,23.6
2018-08-30T10:26:30.750Z,23.6
2018-08-30T10:27:20.084Z,23.6
2018-08-30T10:28:10.371Z,23.7
2018-08-30T10:29:00.093Z,23.6
2018-08-30T10:29:49.881Z,23.7
2018-08-30T10:30:40.394Z,23.6
2018-08-30T10:31:30.822Z,23.7
2018-08-30T10:32:20.373Z,23.7
2018-08-30T10:33:09.525Z,23.7
2018-08-30T10:34:00.223Z,23.7
2018-08-30T10:34:50.844Z,23.6
2018-08-30T10:35:41.473Z,23.7
2018-08-30T10:36:30.965Z,23.7
2018-08-30T10:37:20.249Z,23.7
2018-08-30T10:38:11.624Z,23.7
2018-08-30T10:39:01.644Z,23.7
2018-08-30T10:39:51.202Z,23.7
2018-08-30T10:40:40.738Z,23.7
2018-08-30T10:41:31.078Z,23.7
2018-08-30T10:42:21.245Z,23.7
2018-08-30T10:43:11.835Z,23.7
2018-08-30T10:44:01.309Z,23.7
2018-08-30T10:44:51.887Z,23.8
2018-08-30T10:45:40.787Z,23.7
2018-08-30T10:46:31.203Z,23.7
2018-08-30T10:47:20.957Z,23.7
2018-08-30T10:48:12.532Z,23.7
2018-08-30T10:49:01.920Z,23.7
2018-08-30T10:49:52.986Z,23.7
2018-08-30T10:50:42.014Z,23.8
2018-08-30T10:51:31.602Z,23.7
2018-08-30T10:52:22.491Z,23.7
2018-08-30T10:53:11.949Z,23.7
2018-08-30T10:54:02.614Z,23.7
2018-08-30T10:54:52.104Z,23.7
2018-08-30T10:55:42.167Z,23.7
2018-08-30T10:56:33.355Z,23.8
2018-08-30T10:57:23.674Z,23.7
2018-08-30T10:58:16.103Z,23.8
2018-08-30T10:59:03.434Z,23.7
2018-08-30T10:59:54.275Z,23.8
2018-08-30T11:00:47.115Z,23.8
2018-08-30T11:01:47.853Z,23.8
2018-08-30T11:02:23.383Z,23.7
2018-08-30T11:03:14.796Z,23.8
2018-08-30T11:04:03.599Z,23.8
2018-08-30T11:04:56.039Z,23.8
2018-08-30T11:05:46.008Z,23.7
2018-08-30T11:06:38.097Z,23.7
2018-08-30T11:07:26.814Z,23.8
2018-08-30T11:08:15.051Z,23.8
2018-08-30T11:09:03.523Z,23.7
2018-08-30T11:09:55.251Z,23.8
2018-08-30T11:10:44.867Z,23.8
2018-08-30T11:11:34.514Z,23.8
2018-08-30T11:12:24.235Z,23.8
2018-08-30T11:13:15.412Z,23.8
2018-08-30T11:14:08.014Z,23.8
2018-08-30T11:14:54.791Z,23.8
2018-08-30T11:15:45.693Z,23.8
2018-08-30T11:16:35.150Z,23.8
2018-08-30T11:17:25.067Z,23.8
2018-08-30T11:18:15.393Z,23.8
2018-08-30T11:19:04.525Z,23.8
2018-08-30T11:19:54.652Z,23.8
2018-08-30T11:20:44.473Z,23.8
2018-08-30T11:21:35.798Z,23.8
2018-08-30T11:22:25.960Z,23.8
2018-08-30T11:23:15.018Z,23.8
2018-08-30T11:24:08.250Z,23.7
2018-08-30T11:24:56.519Z,23.8
2018-08-30T11:25:45.601Z,23.8
2018-08-30T11:26:35.800Z,23.8
2018-08-30T11:27:24.688Z,23.8
2018-08-30T11:28:15.245Z,23.8
2018-08-30T11:29:05.182Z,23.8
2018-08-30T11:29:55.208Z,23.8
2018-08-30T11:30:44.674Z,23.8
2018-08-30T11:31:37.065Z,23.8
2018-08-30T11:32:25.824Z,23.8
2018-08-30T11:33:15.924Z,23.8
2018-08-30T11:34:05.927Z,23.8
2018-08-30T11:34:55.553Z,23.8
2018-08-30T11:35:45.588Z,23.8
2018-08-30T11:36:35.627Z,23.8
2018-08-30T11:37:25.979Z,23.8
2018-08-30T11:38:14.990Z,23.8
2018-08-30T11:39:04.989Z,23.8
2018-08-30T11:39:55.899Z,23.8
2018-08-30T11:40:46.570Z,23.8
2018-08-30T11:41:39.886Z,23.8
2018-08-30T11:42:26.822Z,23.8
2018-08-30T11:43:17.040Z,23.8
2018-08-30T11:44:07.374Z,23.8
2018-08-30T11:44:56.709Z,23.8
2018-08-30T11:45:47.896Z,23.8
2018-08-30T11:46:37.171Z,23.8
2018-08-30T11:47:26.544Z,23.8
2018-08-30T11:48:15.464Z,23.8
2018-08-30T11:49:06.696Z,23.8
2018-08-30T11:49:56.422Z,23.8
2018-08-30T11:51:01.418Z,23.8
2018-08-30T11:51:36.388Z,23.8
2018-08-30T11:52:28.274Z,23.8
2018-08-30T11:53:16.504Z,23.8
2018-08-30T11:54:07.676Z,23.8
2018-08-30T11:54:57.054Z,23.8
2018-08-30T11:55:47.416Z,23.8
2018-08-30T11:56:38.023Z,23.8
2018-08-30T11:57:26.453Z,23.8
2018-08-30T11:58:17.068Z,23.8
2018-08-30T11:59:07.997Z,23.8
2018-08-30T11:59:58.028Z,23.8
2018-08-30T12:00:48.749Z,23.8
2018-08-30T12:01:37.685Z,23.8
2018-08-30T12:02:28.463Z,23.8
2018-08-30T12:03:16.977Z,23.8
2018-08-30T12:04:07.505Z,23.8
2018-08-30T12:04:58.504Z,23.8
2018-08-30T12:05:47.062Z,23.8
2018-08-30T12:06:37.162Z,23.8
2018-08-30T12:07:28.135Z,23.8
2018-08-30T12:08:19.257Z,23.8
2018-08-30T12:09:08.079Z,23.8
2018-08-30T12:10:14.323Z,23.8
2018-08-30T12:11:04.862Z,23.8
2018-08-30T12:11:38.874Z,23.8
2018-08-30T12:12:29.204Z,23.8
2018-08-30T12:13:18.810Z,23.8
2018-08-30T12:14:08.318Z,23.8
2018-08-30T12:14:57.803Z,23.8
2018-08-30T12:15:48.772Z,23.8
2018-08-30T12:16:39.133Z,23.8
2018-08-30T12:17:29.426Z,23.8
2018-08-30T12:18:19.646Z,23.8
2018-08-30T12:19:08.550Z,23.8
2018-08-30T12:19:59.616Z,23.8
2018-08-30T12:20:50.986Z,23.8
2018-08-30T12:21:54.394Z,23.8
2018-08-30T12:22:30.059Z,23.8
2018-08-30T12:23:19.266Z,23.9
2018-08-30T12:24:09.646Z,23.9
2018-08-30T12:24:58.914Z,23.9
2018-08-30T12:25:49.201Z,23.9
2018-08-30T12:26:39.613Z,23.8
2018-08-30T12:27:29.788Z,23.8
2018-08-30T12:28:19.840Z,23.8
2018-08-30T12:29:11.279Z,23.8
2018-08-30T12:30:00.327Z,23.8
2018-08-30T12:30:49.433Z,23.8
2018-08-30T12:31:41.781Z,23.8
2018-08-30T12:32:31.302Z,23.8
2018-08-30T12:33:20.010Z,23.9
2018-08-30T12:34:11.544Z,23.9
2018-08-30T12:35:01.995Z,23.8
2018-08-30T12:35:52.574Z,23.9
2018-08-30T12:36:40.947Z,23.8
2018-08-30T12:37:31.269Z,23.9
2018-08-30T12:38:21.198Z,23.9
2018-08-30T12:39:11.729Z,23.9
2018-08-30T12:40:03.597Z,23.8
2018-08-30T12:40:50.483Z,23.9
2018-08-30T12:41:41.681Z,23.8
2018-08-30T12:42:31.853Z,23.9
2018-08-30T12:43:23.132Z,23.9
2018-08-30T12:44:11.744Z,23.9
2018-08-30T12:45:01.536Z,23.9
2018-08-30T12:45:51.257Z,23.9
2018-08-30T12:46:42.281Z,23.9
2018-08-30T12:47:31.711Z,23.8
2018-08-30T12:48:22.082Z,23.9
2018-08-30T12:49:11.303Z,23.9
2018-08-30T12:50:01.642Z,23.8
2018-08-30T12:50:54.456Z,23.9
2018-08-30T12:51:46.360Z,23.9
2018-08-30T12:52:34.601Z,23.9
2018-08-30T12:53:25.232Z,23.9
2018-08-30T12:54:15.101Z,23.9
2018-08-30T12:55:05.094Z,23.9
2018-08-30T12:55:54.014Z,23.8
2018-08-30T12:56:45.109Z,23.9
2018-08-30T12:57:34.803Z,23.9
2018-08-30T12:58:26.576Z,23.9
2018-08-30T12:59:12.950Z,23.8
2018-08-30T13:00:05.572Z,23.9
2018-08-30T13:00:55.336Z,23.9
2018-08-30T13:01:45.494Z,23.9
2018-08-30T13:02:36.740Z,23.9
2018-08-30T13:03:27.484Z,23.9
2018-08-30T13:04:16.108Z,23.9
2018-08-30T13:05:09.861Z,23.9
2018-08-30T13:05:58.337Z,23.9
2018-08-30T13:06:46.707Z,23.9
2018-08-30T13:07:37.262Z,23.9
2018-08-30T13:08:27.195Z,23.9
2018-08-30T13:09:22.566Z,23.9
2018-08-30T13:10:09.977Z,23.9
2018-08-30T13:10:58.611Z,23.9
2018-08-30T13:11:48.373Z,23.9
2018-08-30T13:12:41.081Z,23.9
2018-08-30T13:13:27.999Z,23.9
2018-08-30T13:14:21.639Z,23.9
2018-08-30T13:15:11.862Z,23.9
2018-08-30T13:15:58.575Z,23.9
2018-08-30T13:16:49.044Z,23.9
2018-08-30T13:17:36.459Z,23.9
2018-08-30T13:18:27.203Z,23.9
2018-08-30T13:19:22.599Z,23.9
2018-08-30T13:20:09.132Z,23.9
2018-08-30T13:20:59.019Z,23.9
2018-08-30T13:21:49.494Z,23.9
2018-08-30T13:22:42.465Z,23.9
2018-08-30T13:23:28.461Z,23.9
2018-08-30T13:24:17.627Z,23.9
2018-08-30T13:25:13.908Z,23.9
2018-08-30T13:26:13.875Z,23.9
2018-08-30T13:26:48.318Z,23.9
2018-08-30T13:27:41.846Z,23.9
2018-08-30T13:28:29.668Z,23.9
2018-08-30T13:29:18.666Z,23.9
2018-08-30T13:30:11.810Z,23.9
2018-08-30T13:31:03.284Z,23.9
2018-08-30T13:31:55.395Z,23.9
2018-08-30T13:32:40.970Z,23.9
2018-08-30T13:33:35.522Z,23.9
2018-08-30T13:34:27.755Z,23.9
2018-08-30T13:35:17.710Z,23.9
2018-08-30T13:36:05.245Z,23.9
2018-08-30T13:36:56.875Z,23.9
2018-08-30T13:37:43.963Z,23.9
2018-08-30T13:38:31.872Z,23.9
2018-08-30T13:39:24.590Z,23.9
2018-08-30T13:40:17.457Z,23.9
2018-08-30T13:41:06.512Z,23.9
2018-08-30T13:41:54.483Z,23.9
2018-08-30T13:42:43.063Z,23.9
2018-08-30T13:43:33.490Z,23.9
2018-08-30T13:44:26.597Z,23.9
2018-08-30T13:45:14.688Z,23.9
2018-08-30T13:46:08.803Z,23.9
2018-08-30T13:46:54.430Z,23.9
2018-08-30T13:47:45.742Z,23.9
2018-08-30T13:48:33.555Z,23.9
2018-08-30T13:49:22.664Z,23.9
2018-08-30T13:50:12.806Z,23.9
2018-08-30T13:51:04.672Z,23.9
2018-08-30T13:51:58.187Z,23.9
2018-08-30T13:52:42.976Z,23.9
2018-08-30T13:53:36.089Z,23.9
2018-08-30T13:54:23.885Z,23.9
2018-08-30T13:55:16.657Z,23.9
2018-08-30T13:56:06.346Z,23.9
2018-08-30T13:56:56.914Z,23.9
2018-08-30T13:57:53.139Z,23.9
2018-08-30T13:58:52.169Z,23.9
2018-08-30T13:59:27.284Z,23.9
2018-08-30T14:00:21.827Z,23.9
2018-08-30T14:01:13.229Z,23.9
2018-08-30T14:01:56.178Z,23.9
2018-08-30T14:02:43.245Z,23.9
2018-08-30T14:03:32.483Z,23.9
2018-08-30T14:04:22.993Z,23.9
2018-08-30T14:05:14.095Z,23.9
2018-08-30T14:06:05.328Z,23.9
2018-08-30T14:06:56.798Z,23.9
2018-08-30T14:07:41.549Z,23.9
2018-08-30T14:08:36.397Z,23.9
2018-08-30T14:09:26.153Z,23.9
2018-08-30T14:10:18.340Z,23.9
2018-08-30T14:11:04.784Z,23.9
2018-08-30T14:11:55.989Z,23.9
2018-08-30T14:12:45.531Z,23.9
2018-08-30T14:13:35.322Z,23.9
2018-08-30T14:14:24.496Z,23.9
2018-08-30T14:15:18.957Z,23.9
2018-08-30T14:15:58.418Z,23.9
2018-08-30T14:16:49.678Z,23.9
2018-08-30T14:17:38.537Z,23.9
2018-08-30T14:18:28.445Z,23.9
2018-08-30T14:19:20.737Z,23.9
2018-08-30T14:20:09.229Z,23.9
2018-08-30T14:20:59.291Z,23.9
2018-08-30T14:21:49.576Z,23.9
2018-08-30T14:22:38.937Z,23.9
2018-08-30T14:23:29.541Z,23.9
2018-08-30T14:24:18.768Z,23.9
2018-08-30T14:25:08.991Z,23.9
2018-08-30T14:25:58.966Z,23.9
2018-08-30T14:26:50.766Z,23.9
2018-08-30T14:27:39.076Z,23.9
2018-08-30T14:28:28.673Z,23.9
2018-08-30T14:29:19.462Z,23.9
2018-08-30T14:30:09.182Z,23.9
2018-08-30T14:30:59.706Z,23.9
2018-08-30T14:31:50.162Z,23.9
2018-08-30T14:32:40.194Z,23.9
2018-08-30T14:33:29.129Z,23.9
2018-08-30T14:34:19.300Z,23.9
2018-08-30T14:35:10.117Z,23.9
2018-08-30T14:36:00.063Z,23.9
2018-08-30T14:36:50.104Z,23.9
2018-08-30T14:37:40.246Z,23.9
2018-08-30T14:38:30.084Z,23.9
2018-08-30T14:39:20.939Z,23.9
2018-08-30T14:40:11.080Z,23.9
2018-08-30T14:41:18.677Z,23.9
2018-08-30T14:41:54.199Z,23.9
2018-08-30T14:42:40.107Z,23.9
2018-08-30T14:43:30.515Z,23.9
2018-08-30T14:44:20.825Z,23.9
2018-08-30T14:45:10.241Z,23.9
2018-08-30T14:46:00.910Z,23.9
2018-08-30T14:46:50.118Z,23.9
2018-08-30T14:47:45.198Z,23.9
2018-08-30T14:48:31.053Z,23.9
2018-08-30T14:49:20.367Z,23.9
2018-08-30T14:50:11.326Z,23.9
2018-08-30T14:51:01.799Z,23.9
2018-08-30T14:51:52.473Z,23.9
2018-08-30T14:52:41.079Z,23.9
2018-08-30T14:53:35.085Z,23.9
2018-08-30T14:54:23.545Z,23.9
2018-08-30T14:55:11.402Z,23.9
2018-08-30T14:56:01.579Z,23.9
2018-08-30T14:56:51.767Z,23.9
2018-08-30T14:57:40.686Z,24
2018-08-30T14:58:31.492Z,24
2018-08-30T14:59:22.592Z,24
2018-08-30T15:00:13.063Z,24
2018-08-30T15:01:01.425Z,23.9
2018-08-30T15:01:51.865Z,23.9
2018-08-30T15:02:41.040Z,23.9
2018-08-30T15:03:32.337Z,23.9
2018-08-30T15:04:22.507Z,24
2018-08-30T15:05:13.005Z,24
2018-08-30T15:06:06.061Z,24
2018-08-30T15:06:51.919Z,23.9
2018-08-30T15:07:41.924Z,23.9
2018-08-30T15:08:33.208Z,23.9
2018-08-30T15:09:22.664Z,23.9
2018-08-30T15:10:12.269Z,23.9
2018-08-30T15:11:02.562Z,24
2018-08-30T15:11:52.176Z,24
2018-08-30T15:12:44.808Z,24
2018-08-30T15:13:32.393Z,23.9
2018-08-30T15:14:23.283Z,23.9
2018-08-30T15:15:12.733Z,23.9
2018-08-30T15:16:02.984Z,23.9
2018-08-30T15:16:52.393Z,24
2018-08-30T15:17:43.573Z,24
2018-08-30T15:18:33.766Z,23.9
2018-08-30T15:19:23.243Z,23.9
2018-08-30T15:20:14.850Z,23.9
2018-08-30T15:21:03.272Z,24
2018-08-30T15:21:53.153Z,24
2018-08-30T15:22:42.992Z,23.9
2018-08-30T15:23:35.940Z,24
2018-08-30T15:24:23.111Z,23.9
2018-08-30T15:25:13.702Z,24
2018-08-30T15:26:02.894Z,24
2018-08-30T15:26:55.512Z,23.9
2018-08-30T15:27:43.799Z,23.9
2018-08-30T15:28:34.485Z,23.9
2018-08-30T15:29:26.002Z,24
2018-08-30T15:30:14.534Z,23.9
2018-08-30T15:31:04.214Z,24
2018-08-30T15:31:53.987Z,23.9
2018-08-30T15:32:44.336Z,24
2018-08-30T15:33:34.073Z,24
2018-08-30T15:34:23.807Z,24
2018-08-30T15:35:17.862Z,24
2018-08-30T15:36:04.207Z,23.9
2018-08-30T15:36:55.054Z,24
2018-08-30T15:37:44.637Z,24
2018-08-30T15:38:36.109Z,24
2018-08-30T15:39:24.999Z,24
2018-08-30T15:40:30.309Z,24
2018-08-30T15:41:04.627Z,24
2018-08-30T15:41:54.176Z,24
2018-08-30T15:42:45.413Z,24
2018-08-30T15:43:35.540Z,24
2018-08-30T15:44:25.714Z,24
2018-08-30T15:45:15.346Z,24
2018-08-30T15:46:06.363Z,24
2018-08-30T15:46:55.605Z,24
2018-08-30T15:47:45.216Z,24
2018-08-30T15:48:37.651Z,24
2018-08-30T15:49:26.296Z,24
2018-08-30T15:50:16.582Z,24
2018-08-30T15:51:06.771Z,24
2018-08-30T15:51:56.108Z,24
2018-08-30T15:52:47.180Z,24
2018-08-30T15:53:35.756Z,24
2018-08-30T15:54:25.662Z,24
2018-08-30T15:55:16.461Z,24
2018-08-30T15:56:08.438Z,24
2018-08-30T15:56:56.405Z,24
2018-08-30T16:15:41.247Z,24
2018-08-30T16:16:31.381Z,24
2018-08-30T16:17:24.642Z,24
2018-08-30T16:18:10.279Z,24
2018-08-30T16:19:01.911Z,24.1
2018-08-30T16:19:52.102Z,24
2018-08-30T16:20:42.091Z,24
2018-08-30T16:21:32.139Z,24
2018-08-30T16:22:22.976Z,24.1
2018-08-30T16:23:13.227Z,24
2018-08-30T16:24:01.587Z,24.1
2018-08-30T16:24:53.720Z,24.1
2018-08-30T16:25:43.733Z,24.1
2018-08-30T16:26:32.759Z,24.1
2018-08-30T16:27:21.566Z,24.1
2018-08-30T16:28:12.685Z,24
2018-08-30T16:29:03.178Z,24.1
2018-08-30T16:29:51.524Z,24.1
2018-08-30T16:30:44.802Z,24.1
2018-08-30T16:31:33.573Z,24.1
2018-08-30T16:32:22.090Z,24.1
2018-08-30T16:33:12.822Z,24.1
2018-08-30T16:34:02.150Z,24.1
2018-08-30T16:34:52.678Z,24.1
2018-08-30T16:35:42.733Z,24.1
2018-08-30T16:36:33.210Z,24.1
2018-08-30T16:37:23.337Z,24.1
2018-08-30T16:38:12.553Z,24.1
2018-08-30T16:39:02.835Z,24.1
2018-08-30T16:39:56.241Z,24.1
2018-08-30T16:40:43.203Z,24.1
2018-08-30T16:41:34.714Z,24.1
2018-08-30T16:42:23.361Z,24.1
2018-08-30T16:43:15.289Z,24.1
2018-08-30T16:44:03.439Z,24.1
2018-08-30T16:44:53.914Z,24.1
2018-08-30T16:45:43.340Z,24.1
2018-08-30T16:46:33.775Z,24.1
2018-08-30T16:47:25.040Z,24.1
2018-08-30T16:48:14.334Z,24.1
2018-08-30T16:49:04.762Z,24.1
2018-08-30T16:49:53.421Z,24.1
2018-08-30T16:50:44.052Z,24.1
2018-08-30T16:51:34.652Z,24.1
2018-08-30T16:52:24.110Z,24.1
2018-08-30T16:53:15.272Z,24.1
2018-08-30T16:54:03.693Z,24.1
2018-08-30T16:54:53.789Z,24.1
2018-08-30T16:55:46.489Z,24.1
2018-08-30T16:56:34.321Z,24.1
2018-08-30T16:57:26.099Z,24.1
2018-08-30T16:58:14.316Z,24.1
2018-08-30T16:59:05.715Z,24.1
2018-08-30T16:59:55.069Z,24.1
2018-08-30T17:00:45.550Z,24.1
2018-08-30T17:01:34.394Z,24.1
2018-08-30T17:02:27.773Z,24.1
2018-08-30T17:03:14.066Z,24.1
2018-08-30T17:04:05.908Z,24.1
2018-08-30T17:04:55.793Z,24.1
2018-08-30T17:05:45.268Z,24.1
2018-08-30T17:06:35.892Z,24.1
2018-08-30T17:07:25.415Z,24.1
2018-08-30T17:08:15.189Z,24.1
2018-08-30T17:09:05.505Z,24.1
2018-08-30T17:09:55.255Z,24.1
2018-08-30T17:10:45.860Z,24.1
2018-08-30T17:11:35.485Z,24.1
2018-08-30T17:12:25.238Z,24.1
2018-08-30T17:13:16.043Z,24.1
2018-08-30T17:14:05.390Z,24.1
2018-08-30T17:14:56.426Z,24.1
2018-08-30T17:15:45.228Z,24.1
2018-08-30T17:16:36.292Z,24.1
2018-08-30T17:17:27.309Z,24.1
2018-08-30T17:18:18.354Z,24.1
2018-08-30T17:19:05.980Z,24.1
2018-08-30T17:19:56.056Z,24.1
2018-08-30T17:20:46.523Z,24.1
2018-08-30T17:21:37.765Z,24.1
2018-08-30T17:22:26.768Z,24.1
2018-08-30T17:23:16.227Z,24.1
2018-08-30T17:24:06.932Z,24.1
2018-08-30T17:24:57.418Z,24.1
2018-08-30T17:25:46.514Z,24.1
2018-08-30T17:26:36.820Z,24.1
2018-08-30T17:27:27.262Z,24.1
2018-08-30T17:28:17.485Z,24.1
2018-08-30T17:29:07.345Z,24.1
2018-08-30T17:29:57.092Z,24.1
2018-08-30T17:30:46.481Z,24.1
2018-08-30T17:31:36.985Z,24.1
2018-08-30T17:32:26.573Z,24.1
2018-08-30T17:33:17.736Z,24.1
2018-08-30T17:34:08.066Z,24.1
2018-08-30T17:34:57.144Z,24.1
2018-08-30T17:35:48.494Z,24.1
2018-08-30T17:36:38.282Z,24.1
2018-08-30T17:37:28.217Z,24.1
2018-08-30T17:38:17.915Z,24.1
2018-08-30T17:39:09.119Z,24.1
2018-08-30T17:39:58.079Z,24.1
2018-08-30T17:40:48.295Z,24.1
2018-08-30T17:41:37.974Z,24.1
2018-08-30T17:42:29.219Z,24.1
2018-08-30T17:43:17.346Z,24.1
2018-08-30T17:44:09.151Z,24.1
2018-08-30T17:44:58.592Z,24.1
2018-08-30T17:45:48.825Z,24.1
2018-08-30T17:46:38.096Z,24.1
2018-08-30T17:47:28.469Z,24.1
2018-08-30T17:48:19.105Z,24.1
2018-08-30T17:49:08.689Z,24.1
2018-08-30T17:49:59.317Z,24.1
2018-08-30T17:50:48.728Z,24.1
2018-08-30T17:51:38.559Z,24.1
2018-08-30T17:52:28.815Z,24.1
2018-08-30T17:53:18.266Z,24.1
2018-08-30T17:54:09.501Z,24.1
2018-08-30T17:54:59.608Z,24.1
2018-08-30T17:55:50.104Z,24.1
2018-08-30T17:56:40.438Z,24.1
2018-08-30T17:57:28.928Z,24.1
2018-08-30T17:58:19.408Z,24.1
2018-08-30T17:59:09.758Z,24.1
2018-08-30T18:00:01.622Z,24.1
2018-08-30T18:00:48.978Z,24.1
2018-08-30T18:01:40.181Z,24.1
2018-08-30T18:02:29.716Z,24.1
2018-08-30T18:03:20.775Z,24.1
2018-08-30T18:04:09.839Z,24.1
2018-08-30T18:04:59.792Z,24.1
2018-08-30T18:05:49.880Z,24.1
2018-08-30T18:06:40.716Z,24.1
2018-08-30T18:07:29.665Z,24.1
2018-08-30T18:08:20.299Z,24.1
2018-08-30T18:09:10.550Z,24.1
2018-08-30T18:10:01.124Z,24.1
2018-08-30T18:10:49.986Z,24.1
2018-08-30T18:11:39.532Z,24.1
2018-08-30T18:12:30.637Z,24.1
2018-08-30T18:13:20.092Z,24.1
2018-08-30T18:14:10.425Z,24.1